createdAt,value
2017-07-08T00:00:14.396Z,58.2
2017-07-08T00:01:16.032Z,58.5
2017-07-08T00:02:17.663Z,58.2
2017-07-08T00:03:19.298Z,58.2
2017-07-08T00:04:20.932Z,58.4
2017-07-08T00:05:22.568Z,58.3
2017-07-08T00:06:24.198Z,58.4
2017-07-08T00:07:25.830Z,58.1
2017-07-08T00:08:27.463Z,58.4
2017-07-08T00:09:29.091Z,58.5
2017-07-08T00:10:30.725Z,58.4
2017-07-08T00:11:32.356Z,58.6
2017-07-08T00:12:33.991Z,58.4
2017-07-08T00:13:35.623Z,58.3
2017-07-08T00:14:37.255Z,58.4
2017-07-08T00:15:38.888Z,58.3
2017-07-08T00:16:40.522Z,58.6
2017-07-08T00:17:42.177Z,58.4
2017-07-08T00:18:43.789Z,58.6
2017-07-08T00:19:45.436Z,58.5
2017-07-08T00:20:47.052Z,58.4
2017-07-08T00:21:48.683Z,58.4
2017-07-08T00:22:50.312Z,58.6
2017-07-08T00:23:51.944Z,58.2
2017-07-08T00:24:53.578Z,58.9
2017-07-08T00:25:55.211Z,58.4
2017-07-08T00:26:56.844Z,58.4
2017-07-08T00:27:58.474Z,58.5
2017-07-08T00:29:00.104Z,58.4
2017-07-08T00:30:01.735Z,58.4
2017-07-08T00:31:03.364Z,58.5
2017-07-08T00:32:04.996Z,58.7
2017-07-08T00:33:06.637Z,58.6
2017-07-08T00:34:08.263Z,58.3
2017-07-08T00:35:09.895Z,58.5
2017-07-08T00:36:11.526Z,58.3
2017-07-08T00:37:13.156Z,58.4
2017-07-08T00:38:14.788Z,58.3
2017-07-08T00:39:16.418Z,58.3
2017-07-08T00:40:18.051Z,58.3
2017-07-08T00:41:19.684Z,58.5
2017-07-08T00:42:21.313Z,58.3
2017-07-08T00:43:22.943Z,58.2
2017-07-08T00:44:24.575Z,58.3
2017-07-08T00:45:26.207Z,58.3
2017-07-08T00:46:27.837Z,58.4
2017-07-08T00:47:29.470Z,58.2
2017-07-08T00:48:31.102Z,58.6
2017-07-08T00:49:32.732Z,58.4
2017-07-08T00:50:34.364Z,58.3
2017-07-08T00:51:35.993Z,58.5
2017-07-08T00:52:37.623Z,58.3
2017-07-08T00:53:39.252Z,58.7
2017-07-08T00:54:40.883Z,58.6
2017-07-08T00:55:42.522Z,58.5
2017-07-08T00:56:44.147Z,58.6
2017-07-08T00:57:45.778Z,58.6
2017-07-08T00:58:47.408Z,58.3
2017-07-08T00:59:49.036Z,58.2
2017-07-08T01:00:50.666Z,58.2
2017-07-08T01:01:52.298Z,58.4
2017-07-08T01:02:53.929Z,58.2
2017-07-08T01:03:55.558Z,58.4
2017-07-08T01:04:57.187Z,58.2
2017-07-08T01:05:58.816Z,58.8
2017-07-08T01:07:00.446Z,58.2
2017-07-08T01:08:02.077Z,58.3
2017-07-08T01:09:03.711Z,58.4
2017-07-08T01:10:05.344Z,58.3
2017-07-08T01:11:06.976Z,58.2
2017-07-08T01:12:08.602Z,58.4
2017-07-08T01:13:10.233Z,58.4
2017-07-08T01:14:11.862Z,58.4
2017-07-08T01:15:13.493Z,58.2
2017-07-08T01:16:15.127Z,58.4
2017-07-08T01:17:16.761Z,58.2
2017-07-08T01:18:18.391Z,58.2
2017-07-08T01:19:20.021Z,58.2
2017-07-08T01:20:21.650Z,58.4
2017-07-08T01:21:23.279Z,58.2
2017-07-08T01:22:24.911Z,58.6
2017-07-08T01:23:26.543Z,58.4
2017-07-08T01:24:28.171Z,58.4
2017-07-08T01:25:29.802Z,58.3
2017-07-08T01:26:31.433Z,58.3
2017-07-08T01:27:33.061Z,58.4
2017-07-08T01:28:34.693Z,58.5
2017-07-08T01:29:36.324Z,58.4
2017-07-08T01:30:37.957Z,58.4
2017-07-08T01:31:39.588Z,58.3
2017-07-08T01:32:41.216Z,58.4
2017-07-08T01:33:42.848Z,58.7
2017-07-08T01:34:44.476Z,58.2
2017-07-08T01:35:46.108Z,58.4
2017-07-08T01:36:47.744Z,58.4
2017-07-08T01:37:49.373Z,58.4
2017-07-08T01:38:51.012Z,58.7
2017-07-08T01:39:52.638Z,58.2
2017-07-08T01:40:54.263Z,58.4
2017-07-08T01:41:55.892Z,58.4
2017-07-08T01:42:57.523Z,58.5
2017-07-08T01:43:59.152Z,58.6
2017-07-08T01:45:00.782Z,58.5
2017-07-08T01:46:02.413Z,58.6
2017-07-08T01:47:04.045Z,58.2
2017-07-08T01:48:05.677Z,58.6
2017-07-08T01:49:07.305Z,58.3
2017-07-08T01:50:08.936Z,58.8
2017-07-08T01:51:10.566Z,58.6
2017-07-08T01:52:12.199Z,58.9
2017-07-08T01:53:13.830Z,58.3
2017-07-08T01:54:15.460Z,58.5
2017-07-08T01:55:17.092Z,58.6
2017-07-08T01:56:18.722Z,59.1
2017-07-08T01:57:20.353Z,58.7
2017-07-08T01:58:21.985Z,59.0
2017-07-08T01:59:23.615Z,58.8
2017-07-08T02:00:25.247Z,58.8
2017-07-08T02:01:26.877Z,59.0
2017-07-08T02:02:28.508Z,59.0
2017-07-08T02:03:30.140Z,59.0
2017-07-08T02:04:31.770Z,58.9
2017-07-08T02:05:33.401Z,58.7
2017-07-08T02:06:35.032Z,58.8
2017-07-08T02:07:36.666Z,58.8
2017-07-08T02:08:38.297Z,58.9
2017-07-08T02:09:39.929Z,59.0
2017-07-08T02:10:41.561Z,58.8
2017-07-08T02:11:43.193Z,58.9
2017-07-08T02:12:44.824Z,59.0
2017-07-08T02:13:46.457Z,59.0
2017-07-08T02:14:48.090Z,59.0
2017-07-08T02:15:49.721Z,59.0
2017-07-08T02:16:51.353Z,58.3
2017-07-08T02:17:52.982Z,58.7
2017-07-08T02:18:54.617Z,58.6
2017-07-08T02:19:56.249Z,58.7
2017-07-08T02:20:57.886Z,58.4
2017-07-08T02:21:59.516Z,58.5
2017-07-08T02:23:01.148Z,58.4
2017-07-08T02:24:02.782Z,58.4
2017-07-08T02:25:04.414Z,58.7
2017-07-08T02:26:06.045Z,58.5
2017-07-08T02:27:07.680Z,58.2
2017-07-08T02:28:09.311Z,58.3
2017-07-08T02:29:10.941Z,58.3
2017-07-08T02:30:12.577Z,58.4
2017-07-08T02:31:14.240Z,58.3
2017-07-08T02:32:15.840Z,58.2
2017-07-08T02:33:17.471Z,58.3
2017-07-08T02:34:19.104Z,58.5
2017-07-08T02:35:20.739Z,58.3
2017-07-08T02:36:22.374Z,58.3
2017-07-08T02:37:24.006Z,58.3
2017-07-08T02:38:25.636Z,58.3
2017-07-08T02:39:27.273Z,58.3
2017-07-08T02:40:28.902Z,58.4
2017-07-08T02:41:30.535Z,58.2
2017-07-08T02:42:32.167Z,58.2
2017-07-08T02:43:33.800Z,58.2
2017-07-08T02:44:35.432Z,58.2
2017-07-08T02:45:37.064Z,58.3
2017-07-08T02:46:38.695Z,58.3
2017-07-08T02:47:40.328Z,58.3
2017-07-08T02:48:41.961Z,58.1
2017-07-08T02:49:43.595Z,58.5
2017-07-08T02:50:45.231Z,58.3
2017-07-08T02:51:46.861Z,58.7
2017-07-08T02:52:48.500Z,58.3
2017-07-08T02:53:50.124Z,58.4
2017-07-08T02:54:51.754Z,58.0
2017-07-08T02:55:53.389Z,58.2
2017-07-08T02:56:55.022Z,58.2
2017-07-08T02:57:56.655Z,58.1
2017-07-08T02:58:58.288Z,58.3
2017-07-08T02:59:59.918Z,58.2
2017-07-08T03:01:01.552Z,58.2
2017-07-08T03:02:03.185Z,58.2
2017-07-08T03:03:04.818Z,58.2
2017-07-08T03:04:06.451Z,58.1
2017-07-08T03:05:08.086Z,58.2
2017-07-08T03:06:09.716Z,58.3
2017-07-08T03:07:11.344Z,58.1
2017-07-08T03:08:12.975Z,58.1
2017-07-08T03:09:14.609Z,58.2
2017-07-08T03:10:16.242Z,58.2
2017-07-08T03:11:17.874Z,58.3
2017-07-08T03:12:19.513Z,58.2
2017-07-08T03:13:21.143Z,58.0
2017-07-08T03:14:22.775Z,58.1
2017-07-08T03:15:24.408Z,57.7
2017-07-08T03:16:26.040Z,58.0
2017-07-08T03:17:27.676Z,58.0
2017-07-08T03:18:29.309Z,58.2
2017-07-08T03:19:30.944Z,58.1
2017-07-08T03:20:32.577Z,58.1
2017-07-08T03:21:34.209Z,58.0
2017-07-08T03:22:35.839Z,58.1
2017-07-08T03:23:37.469Z,57.8
2017-07-08T03:24:39.102Z,58.3
2017-07-08T03:25:40.735Z,58.3
2017-07-08T03:26:42.368Z,58.2
2017-07-08T03:27:44.000Z,57.9
2017-07-08T03:28:45.631Z,58.3
2017-07-08T03:29:47.265Z,58.1
2017-07-08T03:30:48.898Z,57.9
2017-07-08T03:31:50.531Z,57.8
2017-07-08T03:32:52.163Z,58.1
2017-07-08T03:33:53.799Z,57.9
2017-07-08T03:34:55.430Z,57.9
2017-07-08T03:35:57.062Z,57.8
2017-07-08T03:36:58.694Z,57.7
2017-07-08T03:38:00.334Z,57.8
2017-07-08T03:39:01.956Z,57.7
2017-07-08T03:40:03.588Z,57.9
2017-07-08T03:41:05.225Z,57.8
2017-07-08T03:42:06.855Z,58.0
2017-07-08T03:43:08.492Z,57.6
2017-07-08T03:44:10.125Z,57.7
2017-07-08T03:45:11.755Z,57.8
2017-07-08T03:46:13.390Z,57.6
2017-07-08T03:47:15.023Z,58.0
2017-07-08T03:48:16.659Z,57.8
2017-07-08T03:49:18.290Z,57.8
2017-07-08T03:50:19.921Z,57.8
2017-07-08T03:51:21.555Z,58.3
2017-07-08T03:52:23.187Z,57.9
2017-07-08T03:53:24.821Z,57.9
2017-07-08T03:54:26.454Z,58.0
2017-07-08T03:55:28.091Z,58.0
2017-07-08T03:56:29.720Z,57.7
2017-07-08T03:57:31.350Z,57.8
2017-07-08T03:58:32.983Z,57.8
2017-07-08T03:59:34.613Z,57.8
2017-07-08T04:00:36.250Z,58.0
2017-07-08T04:01:37.882Z,57.9
2017-07-08T04:02:39.517Z,58.1
2017-07-08T04:03:41.148Z,57.9
2017-07-08T04:04:42.780Z,58.1
2017-07-08T04:05:44.411Z,57.7
2017-07-08T04:06:46.044Z,57.9
2017-07-08T04:07:47.677Z,57.8
2017-07-08T04:08:49.313Z,57.9
2017-07-08T04:09:50.946Z,57.8
2017-07-08T04:10:52.578Z,57.9
2017-07-08T04:11:54.211Z,57.7
2017-07-08T04:12:55.843Z,57.6
2017-07-08T04:13:57.478Z,57.9
2017-07-08T04:14:59.111Z,58.2
2017-07-08T04:16:00.742Z,58.0
2017-07-08T04:17:02.380Z,57.8
2017-07-08T04:18:04.187Z,58.0
2017-07-08T04:19:05.830Z,58.3
2017-07-08T04:20:07.458Z,57.7
2017-07-08T04:21:09.092Z,58.1
2017-07-08T04:22:10.724Z,58.3
2017-07-08T04:23:12.359Z,58.3
2017-07-08T04:24:14.005Z,58.2
2017-07-08T04:25:15.635Z,58.1
2017-07-08T04:26:17.268Z,58.3
2017-07-08T04:27:18.902Z,58.4
2017-07-08T04:28:20.536Z,58.1
2017-07-08T04:29:22.170Z,58.3
2017-07-08T04:30:23.830Z,58.3
2017-07-08T04:31:25.459Z,58.3
2017-07-08T04:32:27.094Z,58.4
2017-07-08T04:33:28.721Z,58.3
2017-07-08T04:34:30.356Z,58.3
2017-07-08T04:35:31.987Z,58.5
2017-07-08T04:36:33.622Z,58.2
2017-07-08T04:37:35.257Z,58.2
2017-07-08T04:38:36.892Z,58.3
2017-07-08T04:39:38.522Z,58.2
2017-07-08T04:40:40.154Z,58.3
2017-07-08T04:41:41.784Z,58.3
2017-07-08T04:42:43.415Z,58.8
2017-07-08T04:43:45.054Z,58.7
2017-07-08T04:44:46.682Z,58.9
2017-07-08T04:45:48.315Z,58.7
2017-07-08T04:46:49.949Z,58.5
2017-07-08T04:47:51.580Z,58.5
2017-07-08T04:48:53.211Z,58.7
2017-07-08T04:49:54.847Z,58.7
2017-07-08T04:50:56.480Z,58.5
2017-07-08T04:51:58.116Z,58.4
2017-07-08T04:52:59.750Z,58.7
2017-07-08T04:54:01.382Z,58.7
2017-07-08T04:55:03.017Z,58.8
2017-07-08T04:56:04.651Z,58.8
2017-07-08T04:57:06.282Z,59.1
2017-07-08T04:58:07.915Z,59.2
2017-07-08T04:59:09.551Z,58.9
2017-07-08T05:00:11.186Z,58.8
2017-07-08T05:01:12.817Z,59.3
2017-07-08T05:02:14.448Z,59.2
2017-07-08T05:03:16.083Z,59.3
2017-07-08T05:04:17.714Z,59.3
2017-07-08T05:05:19.353Z,59.2
2017-07-08T05:06:20.981Z,59.1
2017-07-08T05:07:22.616Z,59.3
2017-07-08T05:08:24.245Z,59.2
2017-07-08T05:09:25.876Z,59.1
2017-07-08T05:10:27.509Z,59.2
2017-07-08T05:11:29.143Z,59.6
2017-07-08T05:12:30.775Z,59.1
2017-07-08T05:13:32.412Z,59.4
2017-07-08T05:14:34.046Z,59.6
2017-07-08T05:15:35.679Z,59.3
2017-07-08T05:16:37.311Z,59.4
2017-07-08T05:17:38.944Z,59.6
2017-07-08T05:18:40.588Z,59.4
2017-07-08T05:19:42.220Z,59.2
2017-07-08T05:20:43.863Z,59.4
2017-07-08T05:21:45.496Z,59.4
2017-07-08T05:22:47.126Z,59.4
2017-07-08T05:23:48.757Z,59.6
2017-07-08T05:24:50.387Z,59.5
2017-07-08T05:25:52.024Z,59.4
2017-07-08T05:26:53.655Z,59.5
2017-07-08T05:27:55.291Z,59.4
2017-07-08T05:28:56.930Z,59.4
2017-07-08T05:29:58.561Z,59.4
2017-07-08T05:31:00.191Z,59.8
2017-07-08T05:32:01.824Z,60.0
2017-07-08T05:33:03.457Z,60.0
2017-07-08T05:34:05.089Z,60.0
2017-07-08T05:35:06.722Z,59.9
2017-07-08T05:36:08.360Z,59.9
2017-07-08T05:37:09.993Z,59.8
2017-07-08T05:38:11.625Z,59.8
2017-07-08T05:39:13.281Z,59.9
2017-07-08T05:40:14.894Z,59.9
2017-07-08T05:41:16.526Z,60.0
2017-07-08T05:42:18.167Z,60.0
2017-07-08T05:43:19.799Z,60.0
2017-07-08T05:44:21.432Z,60.0
2017-07-08T05:45:23.062Z,60.1
2017-07-08T05:46:24.699Z,60.0
2017-07-08T05:47:26.332Z,59.9
2017-07-08T05:48:27.966Z,60.2
2017-07-08T05:49:30.358Z,59.9
2017-07-08T05:50:32.887Z,60.2
2017-07-08T05:51:34.525Z,60.0
2017-07-08T05:52:36.160Z,59.6
2017-07-08T05:53:37.790Z,59.2
2017-07-08T05:54:39.424Z,58.6
2017-07-08T05:55:41.059Z,58.7
2017-07-08T05:56:42.690Z,58.5
2017-07-08T05:57:44.324Z,58.6
2017-07-08T05:58:46.313Z,58.8
2017-07-08T05:59:48.002Z,58.7
2017-07-08T06:00:49.731Z,58.9
2017-07-08T06:01:51.361Z,58.7
2017-07-08T06:02:52.998Z,58.7
2017-07-08T06:03:54.634Z,58.9
2017-07-08T06:04:56.262Z,58.5
2017-07-08T06:05:57.993Z,58.6
2017-07-08T06:06:59.624Z,59.2
2017-07-08T06:08:01.309Z,59.1
2017-07-08T06:09:02.884Z,59.1
2017-07-08T06:10:04.517Z,58.8
2017-07-08T06:11:06.150Z,62.2
2017-07-08T06:12:08.986Z,64.0
2017-07-08T06:13:13.870Z,64.4
2017-07-08T06:14:16.116Z,63.9
2017-07-08T06:15:20.137Z,63.5
2017-07-08T06:16:22.736Z,62.7
2017-07-08T06:17:24.626Z,62.8
2017-07-08T06:18:26.704Z,62.1
2017-07-08T06:19:28.553Z,61.8
2017-07-08T06:20:30.427Z,61.4
2017-07-08T06:21:32.058Z,61.4
2017-07-08T06:22:33.693Z,61.3
2017-07-08T06:23:36.592Z,61.2
2017-07-08T06:24:38.553Z,60.7
2017-07-08T06:25:40.509Z,61.5
2017-07-08T06:26:42.363Z,61.0
2017-07-08T06:27:44.680Z,61.1
2017-07-08T06:28:46.326Z,60.6
2017-07-08T06:29:48.000Z,61.0
2017-07-08T06:30:49.631Z,60.9
2017-07-08T06:31:51.282Z,61.3
2017-07-08T06:32:53.143Z,61.5
2017-07-08T06:33:54.778Z,61.5
2017-07-08T06:34:57.094Z,61.2
2017-07-08T06:35:58.735Z,61.3
2017-07-08T06:37:00.390Z,61.6
2017-07-08T06:38:02.027Z,62.8
2017-07-08T06:39:03.822Z,63.5
2017-07-08T06:40:05.552Z,64.8
2017-07-08T06:41:08.052Z,64.9
2017-07-08T06:42:09.697Z,65.2
2017-07-08T06:43:11.414Z,64.9
2017-07-08T06:44:13.385Z,64.2
2017-07-08T06:45:15.026Z,64.7
2017-07-08T06:46:17.816Z,64.4
2017-07-08T06:47:19.421Z,64.3
2017-07-08T06:48:21.065Z,64.1
2017-07-08T06:49:22.853Z,63.8
2017-07-08T06:50:24.451Z,64.5
2017-07-08T06:51:27.461Z,65.2
2017-07-08T06:52:29.549Z,65.7
2017-07-08T06:53:31.232Z,65.4
2017-07-08T06:54:33.550Z,65.0
2017-07-08T06:55:35.411Z,65.0
2017-07-08T06:56:37.088Z,64.8
2017-07-08T06:57:38.733Z,64.9
2017-07-08T06:58:41.065Z,64.5
2017-07-08T06:59:42.713Z,64.7
2017-07-08T07:00:44.350Z,64.7
2017-07-08T07:01:46.176Z,64.2
2017-07-08T07:02:48.701Z,64.5
2017-07-08T07:03:50.422Z,64.2
2017-07-08T07:04:52.051Z,64.8
2017-07-08T07:05:53.690Z,65.1
2017-07-08T07:06:55.325Z,64.2
2017-07-08T07:07:58.477Z,64.2
2017-07-08T07:09:00.113Z,64.5
2017-07-08T07:10:02.226Z,64.1
2017-07-08T07:11:04.004Z,63.3
2017-07-08T07:12:06.023Z,63.1
2017-07-08T07:13:07.927Z,62.6
2017-07-08T07:14:10.069Z,62.1
2017-07-08T07:15:11.876Z,61.6
2017-07-08T07:16:13.651Z,62.0
2017-07-08T07:17:15.538Z,62.2
2017-07-08T07:18:17.490Z,61.7
2017-07-08T07:19:19.325Z,61.5
2017-07-08T07:20:20.961Z,61.5
2017-07-08T07:21:22.882Z,61.5
2017-07-08T07:22:24.517Z,61.7
2017-07-08T07:23:26.153Z,61.6
2017-07-08T07:24:27.790Z,62.0
2017-07-08T07:25:29.485Z,61.7
2017-07-08T07:26:31.118Z,61.1
2017-07-08T07:27:32.752Z,61.6
2017-07-08T07:28:34.419Z,61.7
2017-07-08T07:29:36.058Z,61.2
2017-07-08T07:30:37.691Z,61.5
2017-07-08T07:31:40.282Z,61.3
2017-07-08T07:32:41.933Z,61.5
2017-07-08T07:33:43.578Z,62.0
2017-07-08T07:34:45.210Z,61.5
2017-07-08T07:35:46.846Z,60.0
2017-07-08T07:36:48.478Z,58.2
2017-07-08T07:37:50.112Z,58.2
2017-07-08T07:38:51.748Z,58.1
2017-07-08T07:39:53.381Z,57.5
2017-07-08T07:40:55.013Z,57.3
2017-07-08T07:41:56.649Z,57.5
2017-07-08T07:42:58.280Z,57.2
2017-07-08T07:43:59.917Z,56.2
2017-07-08T07:45:01.639Z,56.1
2017-07-08T07:46:03.277Z,56.6
2017-07-08T07:47:05.011Z,56.9
2017-07-08T07:48:06.643Z,57.0
2017-07-08T07:49:08.307Z,56.3
2017-07-08T07:50:09.947Z,56.4
2017-07-08T07:51:11.580Z,56.8
2017-07-08T07:52:13.212Z,56.6
2017-07-08T07:53:14.856Z,56.4
2017-07-08T07:54:16.510Z,56.8
2017-07-08T07:55:18.139Z,56.8
2017-07-08T07:56:19.774Z,56.5
2017-07-08T07:57:21.407Z,56.7
2017-07-08T07:58:23.043Z,55.4
2017-07-08T07:59:24.675Z,55.8
2017-07-08T08:00:26.309Z,56.0
2017-07-08T08:01:27.943Z,55.8
2017-07-08T08:02:29.574Z,55.8
2017-07-08T08:03:31.208Z,55.9
2017-07-08T08:04:32.840Z,56.2
2017-07-08T08:05:34.479Z,56.4
2017-07-08T08:06:36.121Z,56.2
2017-07-08T08:07:37.759Z,56.0
2017-07-08T08:08:39.391Z,56.4
2017-07-08T08:09:41.025Z,56.3
2017-07-08T08:10:42.659Z,56.3
2017-07-08T08:11:44.295Z,55.6
2017-07-08T08:12:45.931Z,56.8
2017-07-08T08:13:47.613Z,56.7
2017-07-08T08:14:49.252Z,56.9
2017-07-08T08:15:50.880Z,56.8
2017-07-08T08:16:52.517Z,57.0
2017-07-08T08:17:54.151Z,57.8
2017-07-08T08:18:55.785Z,57.0
2017-07-08T08:19:57.419Z,57.0
2017-07-08T08:20:59.081Z,56.9
2017-07-08T08:22:00.722Z,56.8
2017-07-08T08:23:02.350Z,56.2
2017-07-08T08:24:03.986Z,56.6
2017-07-08T08:25:05.619Z,56.2
2017-07-08T08:26:07.254Z,55.6
2017-07-08T08:27:08.891Z,55.6
2017-07-08T08:28:10.528Z,55.2
2017-07-08T08:29:12.214Z,54.6
2017-07-08T08:30:13.848Z,54.4
2017-07-08T08:31:15.479Z,54.9
2017-07-08T08:32:17.119Z,55.1
2017-07-08T08:33:18.756Z,55.2
2017-07-08T08:34:20.388Z,55.2
2017-07-08T08:35:22.033Z,54.5
2017-07-08T08:36:23.669Z,55.6
2017-07-08T08:37:25.301Z,55.4
2017-07-08T08:38:26.935Z,55.1
2017-07-08T08:39:28.572Z,55.1
2017-07-08T08:40:30.203Z,55.0
2017-07-08T08:41:31.889Z,55.2
2017-07-08T08:42:33.525Z,55.3
2017-07-08T08:43:35.164Z,56.1
2017-07-08T08:44:36.801Z,55.0
2017-07-08T08:45:38.433Z,54.6
2017-07-08T08:46:40.068Z,54.9
2017-07-08T08:47:41.704Z,54.6
2017-07-08T08:48:43.340Z,54.5
2017-07-08T08:49:44.969Z,54.2
2017-07-08T08:50:46.611Z,54.4
2017-07-08T08:51:48.243Z,54.4
2017-07-08T08:52:49.875Z,54.6
2017-07-08T08:53:51.507Z,54.6
2017-07-08T08:54:53.141Z,54.5
2017-07-08T08:55:54.774Z,54.8
2017-07-08T08:56:56.410Z,54.8
2017-07-08T08:57:58.044Z,54.5
2017-07-08T08:58:59.677Z,54.7
2017-07-08T09:00:01.308Z,54.6
2017-07-08T09:01:02.959Z,53.7
2017-07-08T09:02:04.593Z,54.4
2017-07-08T09:03:06.224Z,53.9
2017-07-08T09:04:07.857Z,53.7
2017-07-08T09:05:09.494Z,53.8
2017-07-08T09:06:11.122Z,53.8
2017-07-08T09:07:12.753Z,52.9
2017-07-08T09:08:14.387Z,53.4
2017-07-08T09:09:16.020Z,53.3
2017-07-08T09:10:17.655Z,53.2
2017-07-08T09:11:19.290Z,53.1
2017-07-08T09:12:20.922Z,51.8
2017-07-08T09:13:22.556Z,53.5
2017-07-08T09:14:24.185Z,53.0
2017-07-08T09:15:25.818Z,53.1
2017-07-08T09:16:27.452Z,52.8
2017-07-08T09:17:29.081Z,52.4
2017-07-08T09:18:30.719Z,52.9
2017-07-08T09:19:32.353Z,52.9
2017-07-08T09:20:33.984Z,52.1
2017-07-08T09:21:35.616Z,52.3
2017-07-08T09:22:37.248Z,52.1
2017-07-08T09:23:38.881Z,52.5
2017-07-08T09:24:40.516Z,52.3
2017-07-08T09:25:42.147Z,52.7
2017-07-08T09:26:43.781Z,51.9
2017-07-08T09:27:45.409Z,52.2
2017-07-08T09:28:47.040Z,52.5
2017-07-08T09:29:48.673Z,51.9
2017-07-08T09:30:50.304Z,51.9
2017-07-08T09:31:51.940Z,51.8
2017-07-08T09:32:53.570Z,51.5
2017-07-08T09:33:55.203Z,51.9
2017-07-08T09:34:56.833Z,52.0
2017-07-08T09:35:58.464Z,52.3
2017-07-08T09:37:00.095Z,52.2
2017-07-08T09:38:01.725Z,51.9
2017-07-08T09:39:03.358Z,52.0
2017-07-08T09:40:04.994Z,52.2
2017-07-08T09:41:07.193Z,52.1
2017-07-08T09:42:08.833Z,52.1
2017-07-08T09:43:10.526Z,52.2
2017-07-08T09:44:12.156Z,51.9
2017-07-08T09:45:14.222Z,51.2
2017-07-08T09:46:15.863Z,51.1
2017-07-08T09:47:17.502Z,52.0
2017-07-08T09:48:19.134Z,51.9
2017-07-08T09:49:20.761Z,51.7
2017-07-08T09:50:22.394Z,52.1
2017-07-08T09:51:24.722Z,51.5
2017-07-08T09:52:32.518Z,51.4
2017-07-08T09:53:34.426Z,51.3
2017-07-08T09:54:36.183Z,51.5
2017-07-08T09:55:37.871Z,51.8
2017-07-08T09:56:39.503Z,51.9
2017-07-08T09:57:41.451Z,51.9
2017-07-08T09:58:43.769Z,52.0
2017-07-08T09:59:45.833Z,51.8
2017-07-08T10:00:47.505Z,51.5
2017-07-08T10:01:49.896Z,51.5
2017-07-08T10:02:53.124Z,51.6
2017-07-08T10:03:55.069Z,50.8
2017-07-08T10:05:01.024Z,51.0
2017-07-08T10:06:03.472Z,51.5
2017-07-08T10:07:07.031Z,51.5
2017-07-08T10:08:09.171Z,50.9
2017-07-08T10:09:12.861Z,51.1
2017-07-08T10:10:20.695Z,50.4
2017-07-08T10:11:22.301Z,50.5
2017-07-08T10:12:23.939Z,50.3
2017-07-08T10:13:29.545Z,50.2
2017-07-08T10:14:31.670Z,50.1
2017-07-08T10:15:33.934Z,50.6
2017-07-08T10:16:37.901Z,50.4
2017-07-08T10:17:39.543Z,51.0
2017-07-08T10:18:41.516Z,49.8
2017-07-08T10:19:45.179Z,50.3
2017-07-08T10:20:48.911Z,50.6
2017-07-08T10:21:50.791Z,50.6
2017-07-08T10:22:52.426Z,49.8
2017-07-08T10:23:54.194Z,50.7
2017-07-08T10:25:00.615Z,50.1
2017-07-08T10:26:02.225Z,50.6
2017-07-08T10:27:05.419Z,50.2
2017-07-08T10:28:07.182Z,50.1
2017-07-08T10:29:09.724Z,49.7
2017-07-08T10:30:15.302Z,49.7
2017-07-08T10:31:18.694Z,49.9
2017-07-08T10:32:24.474Z,49.3
2017-07-08T10:33:27.493Z,49.2
2017-07-08T10:34:29.786Z,49.0
2017-07-08T10:35:32.451Z,48.9
2017-07-08T10:36:34.291Z,48.6
2017-07-08T10:37:40.466Z,48.6
2017-07-08T10:38:42.069Z,49.1
2017-07-08T10:39:43.704Z,50.3
2017-07-08T10:40:45.701Z,49.6
2017-07-08T10:41:50.022Z,49.3
2017-07-08T10:42:51.667Z,49.8
2017-07-08T10:43:53.335Z,49.7
2017-07-08T10:44:58.567Z,49.2
2017-07-08T10:46:00.810Z,49.5
2017-07-08T10:47:02.443Z,49.5
2017-07-08T10:48:04.412Z,49.0
2017-07-08T10:49:10.816Z,49.0
2017-07-08T10:50:14.008Z,47.5
2017-07-08T10:51:19.048Z,47.6
2017-07-08T10:52:23.251Z,48.3
2017-07-08T10:53:25.059Z,47.8
2017-07-08T10:54:27.914Z,47.8
2017-07-08T10:55:30.921Z,47.7
2017-07-08T10:56:32.809Z,47.7
2017-07-08T10:57:34.475Z,47.4
2017-07-08T10:58:36.099Z,48.0
2017-07-08T10:59:40.759Z,47.5
2017-07-08T11:00:42.427Z,48.2
2017-07-08T11:01:45.748Z,47.9
2017-07-08T11:02:48.658Z,48.6
2017-07-08T11:03:51.340Z,48.1
2017-07-08T11:04:52.974Z,48.6
2017-07-08T11:05:55.325Z,48.5
2017-07-08T11:06:57.794Z,48.3
2017-07-08T11:07:59.951Z,47.9
2017-07-08T11:09:02.246Z,48.9
2017-07-08T11:10:04.813Z,49.2
2017-07-08T11:11:10.227Z,49.1
2017-07-08T11:12:11.975Z,49.4
2017-07-08T11:13:13.809Z,49.6
2017-07-08T11:14:17.772Z,49.6
2017-07-08T11:15:19.402Z,49.6
2017-07-08T11:16:22.359Z,49.6
2017-07-08T11:17:24.304Z,49.6
2017-07-08T11:18:25.936Z,49.6
2017-07-08T11:19:28.141Z,49.7
2017-07-08T11:20:29.831Z,49.3
2017-07-08T11:21:31.485Z,49.0
2017-07-08T11:22:34.169Z,49.0
2017-07-08T11:23:36.619Z,49.0
2017-07-08T11:24:38.513Z,49.0
2017-07-08T11:25:40.141Z,49.5
2017-07-08T11:26:42.270Z,50.1
2017-07-08T11:27:44.298Z,50.1
2017-07-08T11:28:45.940Z,50.2
2017-07-08T11:29:49.755Z,51.0
2017-07-08T11:30:51.391Z,50.1
2017-07-08T11:31:53.516Z,50.5
2017-07-08T11:32:57.991Z,49.9
2017-07-08T11:33:59.621Z,50.3
2017-07-08T11:35:01.791Z,50.4
2017-07-08T11:36:03.431Z,49.8
2017-07-08T11:37:06.814Z,50.3
2017-07-08T11:38:08.364Z,50.9
2017-07-08T11:39:10.103Z,50.6
2017-07-08T11:40:14.304Z,50.3
2017-07-08T11:41:18.299Z,50.5
2017-07-08T11:42:20.092Z,49.1
2017-07-08T11:43:22.161Z,49.0
2017-07-08T11:44:24.492Z,49.7
2017-07-08T11:45:26.135Z,49.5
2017-07-08T11:46:27.768Z,49.2
2017-07-08T11:47:29.401Z,49.1
2017-07-08T11:48:31.205Z,48.6
2017-07-08T11:49:33.833Z,48.0
2017-07-08T11:50:35.417Z,48.5
2017-07-08T11:51:37.442Z,49.0
2017-07-08T11:52:39.533Z,49.1
2017-07-08T11:53:42.424Z,49.2
2017-07-08T11:54:44.927Z,48.7
2017-07-08T11:55:46.953Z,48.4
2017-07-08T11:56:48.596Z,48.3
2017-07-08T11:57:50.843Z,48.7
2017-07-08T11:58:53.124Z,48.6
2017-07-08T11:59:56.429Z,49.0
2017-07-08T12:00:58.539Z,49.2
2017-07-08T12:02:01.133Z,49.2
2017-07-08T12:03:02.976Z,49.5
2017-07-08T12:04:05.084Z,49.6
2017-07-08T12:05:08.432Z,49.5
2017-07-08T12:06:10.499Z,50.1
2017-07-08T12:07:12.145Z,50.0
2017-07-08T12:08:13.785Z,49.3
2017-07-08T12:09:15.441Z,49.7
2017-07-08T12:10:17.071Z,49.0
2017-07-08T12:11:18.732Z,48.8
2017-07-08T12:12:20.365Z,48.0
2017-07-08T12:13:21.998Z,48.3
2017-07-08T12:14:23.650Z,47.8
2017-07-08T12:15:25.276Z,47.7
2017-07-08T12:16:26.922Z,48.0
2017-07-08T12:17:28.544Z,48.3
2017-07-08T12:18:30.177Z,48.1
2017-07-08T12:19:31.812Z,48.5
2017-07-08T12:20:33.446Z,48.5
2017-07-08T12:21:35.080Z,48.8
2017-07-08T12:22:36.711Z,47.7
2017-07-08T12:23:38.341Z,47.6
2017-07-08T12:24:39.974Z,47.6
2017-07-08T12:25:41.610Z,47.9
2017-07-08T12:26:43.245Z,47.8
2017-07-08T12:27:44.878Z,47.8
2017-07-08T12:28:46.508Z,48.3
2017-07-08T12:29:48.139Z,47.2
2017-07-08T12:30:49.770Z,47.4
2017-07-08T12:31:51.400Z,46.4
2017-07-08T12:32:53.030Z,46.8
2017-07-08T12:33:54.664Z,47.2
2017-07-08T12:34:56.295Z,47.5
2017-07-08T12:35:57.926Z,47.2
2017-07-08T12:36:59.576Z,47.3
2017-07-08T12:38:01.224Z,47.3
2017-07-08T12:39:02.852Z,47.5
2017-07-08T12:40:05.037Z,47.5
2017-07-08T12:41:06.670Z,48.0
2017-07-08T12:42:08.631Z,47.6
2017-07-08T12:43:13.219Z,47.4
2017-07-08T12:44:15.745Z,46.8
2017-07-08T12:45:17.475Z,46.0
2017-07-08T12:46:19.959Z,46.1
2017-07-08T12:47:22.259Z,46.6
2017-07-08T12:48:23.910Z,46.3
2017-07-08T12:49:25.564Z,46.0
2017-07-08T12:50:31.270Z,45.5
2017-07-08T12:51:32.901Z,46.5
2017-07-08T12:52:34.537Z,46.4
2017-07-08T12:53:36.169Z,46.5
2017-07-08T12:54:37.831Z,47.1
2017-07-08T12:55:39.462Z,47.4
2017-07-08T12:56:41.094Z,47.6
2017-07-08T12:57:42.727Z,47.4
2017-07-08T12:58:44.362Z,47.4
2017-07-08T12:59:45.989Z,47.0
2017-07-08T13:00:47.631Z,46.8
2017-07-08T13:01:49.273Z,47.2
2017-07-08T13:02:50.899Z,47.2
2017-07-08T13:03:52.561Z,47.3
2017-07-08T13:04:54.198Z,47.3
2017-07-08T13:05:55.833Z,46.8
2017-07-08T13:06:57.461Z,47.4
2017-07-08T13:07:59.096Z,47.7
2017-07-08T13:09:00.729Z,47.0
2017-07-08T13:10:04.641Z,46.8
2017-07-08T13:11:06.275Z,47.1
2017-07-08T13:12:07.911Z,47.7
2017-07-08T13:13:11.937Z,47.5
2017-07-08T13:14:13.572Z,47.3
2017-07-08T13:15:15.203Z,46.8
2017-07-08T13:16:16.837Z,46.9
2017-07-08T13:17:18.475Z,46.9
2017-07-08T13:18:22.869Z,47.2
2017-07-08T13:19:24.501Z,46.9
2017-07-08T13:20:27.068Z,47.0
2017-07-08T13:21:28.701Z,46.9
2017-07-08T13:22:31.766Z,47.0
2017-07-08T13:23:33.403Z,47.1
2017-07-08T13:24:35.035Z,47.6
2017-07-08T13:25:36.670Z,47.3
2017-07-08T13:26:38.315Z,47.4
2017-07-08T13:27:40.487Z,47.7
2017-07-08T13:28:42.123Z,47.8
2017-07-08T13:29:43.759Z,48.3
2017-07-08T13:30:45.387Z,46.7
2017-07-08T13:31:47.023Z,46.8
2017-07-08T13:32:48.830Z,46.8
2017-07-08T13:33:50.465Z,47.4
2017-07-08T13:34:52.105Z,47.4
2017-07-08T13:35:53.744Z,47.4
2017-07-08T13:36:55.532Z,47.5
2017-07-08T13:37:57.613Z,47.3
2017-07-08T13:39:00.099Z,47.2
2017-07-08T13:40:02.165Z,46.9
2017-07-08T13:41:03.815Z,46.7
2017-07-08T13:42:05.460Z,47.1
2017-07-08T13:43:07.094Z,46.8